Check out our new PWSWeather beta!
PWSweather.com
Personal Weather Stations
Station Observations

MakarauRodneyNZ

Lat: -36.52421, Lon: 174.47572

Elevation: 606

Station Type: Davis VP2

http://kaiparaweather.dynu.net/index.php

High Low Average
Temperature 65.1°F18.4°C 54.4°F12.4°C 60.4°F15.8°C
Dew Point 59.7°F15.4°C 49.0°F9.4°C 54.6°F12.6°C
Winds 18.4 mph 29.6 kmh 1.2 mph 1.9 kmh 9.0 mph W14.5 kmh W
Wind Gusts 35.7 mph57.5 kmh 3.5 mph5.6 kmh 16.0 mph25.7 kmh
Humidity 95% 66% 82%
Pressure 29.84 in1010.5 mb 29.71 in1006.1 mb -
Precipitation 0.08 in2.0 mm - -
Hour Temp Dew Point Humidity Winds Wind Gusts Pressure Precip Precip Rate Daily Precip Total
12:00 AM 61.2°F16.2°C 58.9°F14.9°C 92% 6.9 mph W11.1 kmh W 17.3 mph27.8 kmh 29.80 in1009.1 mb - 0.00 in0.0 mm 0.00 in0.0 mm
12:10 AM 61.3°F16.3°C 59.0°F15.0°C 92% 8.1 mph WNW13.0 kmh WNW 15.0 mph24.1 kmh 29.79 in1008.8 mb - 0.00 in0.0 mm 0.00 in0.0 mm
12:20 AM 61.3°F16.3°C 59.0°F15.0°C 92% 11.5 mph WNW18.5 kmh WNW 19.6 mph31.5 kmh 29.79 in1008.8 mb - 0.00 in0.0 mm 0.00 in0.0 mm
12:30 AM 61.2°F16.2°C 58.9°F14.9°C 92% 6.9 mph W11.1 kmh W 15.0 mph24.1 kmh 29.78 in1008.5 mb - 0.00 in0.0 mm 0.00 in0.0 mm
12:40 AM 61.1°F16.2°C 58.8°F14.9°C 92% 9.2 mph NNW14.8 kmh NNW 11.5 mph18.5 kmh 29.78 in1008.5 mb - 0.01 in0.3 mm 0.01 in0.3 mm
12:50 AM 61.0°F16.1°C 59.0°F15.0°C 93% 12.7 mph NW20.4 kmh NW 26.5 mph42.6 kmh 29.77 in1008.1 mb - 0.00 in0.0 mm 0.01 in0.3 mm
01:00 AM 60.9°F16.1°C 58.9°F14.9°C 93% 10.4 mph WNW16.7 kmh WNW 24.2 mph38.9 kmh 29.77 in1008.1 mb - 0.02 in0.5 mm 0.02 in0.5 mm
01:10 AM 60.8°F16.0°C 58.8°F14.9°C 93% 8.1 mph W13.0 kmh W 18.4 mph29.6 kmh 29.77 in1008.1 mb - 0.00 in0.0 mm 0.02 in0.5 mm
01:20 AM 60.8°F16.0°C 58.8°F14.9°C 93% 6.9 mph WNW11.1 kmh WNW 15.0 mph24.1 kmh 29.76 in1007.8 mb - 0.00 in0.0 mm 0.02 in0.5 mm
01:30 AM 60.8°F16.0°C 59.0°F15.0°C 94% 9.2 mph NW14.8 kmh NW 16.1 mph25.9 kmh 29.75 in1007.5 mb - 0.01 in0.3 mm 0.03 in0.8 mm
01:40 AM 60.8°F16.0°C 59.1°F15.1°C 94% 11.5 mph NNW18.5 kmh NNW 21.9 mph35.2 kmh 29.75 in1007.5 mb - 0.01 in0.3 mm 0.04 in1.0 mm
01:50 AM 60.7°F15.9°C 59.0°F15.0°C 94% 6.9 mph WNW11.1 kmh WNW 13.8 mph22.2 kmh 29.75 in1007.5 mb - 0.00 in0.0 mm 0.04 in1.0 mm
02:00 AM 60.7°F15.9°C 59.0°F15.0°C 94% 6.9 mph WNW11.1 kmh WNW 11.5 mph18.5 kmh 29.74 in1007.1 mb - 0.01 in0.3 mm 0.05 in1.3 mm
02:10 AM 60.8°F16.0°C 59.1°F15.1°C 94% 4.6 mph W7.4 kmh W 17.3 mph27.8 kmh 29.74 in1007.1 mb - 0.01 in0.3 mm 0.06 in1.5 mm
02:20 AM 60.8°F16.0°C 59.1°F15.1°C 94% 6.9 mph NW11.1 kmh NW 12.7 mph20.4 kmh 29.73 in1006.8 mb - 0.00 in0.0 mm 0.06 in1.5 mm
02:30 AM 60.9°F16.1°C 59.4°F15.2°C 95% 6.9 mph WSW11.1 kmh WSW 16.1 mph25.9 kmh 29.73 in1006.8 mb - 0.01 in0.3 mm 0.06 in1.5 mm
02:40 AM 60.9°F16.1°C 59.4°F15.2°C 95% 6.9 mph W11.1 kmh W 13.8 mph22.2 kmh 29.73 in1006.8 mb - 0.00 in0.0 mm 0.06 in1.5 mm
02:50 AM 60.9°F16.1°C 59.5°F15.3°C 95% 8.1 mph WNW13.0 kmh WNW 18.4 mph29.6 kmh 29.73 in1006.8 mb - 0.00 in0.0 mm 0.06 in1.5 mm
03:00 AM 61.0°F16.1°C 59.6°F15.3°C 95% 10.4 mph WNW16.7 kmh WNW 20.7 mph33.3 kmh 29.72 in1006.4 mb - 0.01 in0.3 mm 0.07 in1.8 mm
03:10 AM 61.0°F16.1°C 59.5°F15.3°C 95% 6.9 mph W11.1 kmh W 12.7 mph20.4 kmh 29.72 in1006.4 mb - 0.00 in0.0 mm 0.07 in1.8 mm
03:20 AM 61.0°F16.1°C 59.6°F15.3°C 95% 5.8 mph W9.3 kmh W 16.1 mph25.9 kmh 29.72 in1006.4 mb - 0.00 in0.0 mm 0.07 in1.8 mm
03:30 AM 61.1°F16.2°C 59.6°F15.3°C 95% 10.4 mph W16.7 kmh W 15.0 mph24.1 kmh 29.72 in1006.4 mb - 0.00 in0.0 mm 0.07 in1.8 mm
03:40 AM 61.1°F16.2°C 59.6°F15.3°C 95% 9.2 mph WNW14.8 kmh WNW 18.4 mph29.6 kmh 29.72 in1006.4 mb - 0.00 in0.0 mm 0.07 in1.8 mm
03:50 AM 61.1°F16.2°C 59.7°F15.4°C 95% 9.2 mph WSW14.8 kmh WSW 11.5 mph18.5 kmh 29.71 in1006.1 mb - 0.01 in0.3 mm 0.08 in2.0 mm
04:00 AM 61.1°F16.2°C 59.7°F15.4°C 95% 9.2 mph NW14.8 kmh NW 13.8 mph22.2 kmh 29.71 in1006.1 mb - 0.00 in0.0 mm 0.08 in2.0 mm
04:10 AM 61.1°F16.2°C 59.7°F15.4°C 95% 5.8 mph WSW9.3 kmh WSW 11.5 mph18.5 kmh 29.71 in1006.1 mb - 0.00 in0.0 mm 0.08 in2.0 mm
04:20 AM 61.1°F16.2°C 59.7°F15.4°C 95% 11.5 mph NW18.5 kmh NW 15.0 mph24.1 kmh 29.71 in1006.1 mb - 0.00 in0.0 mm 0.08 in2.0 mm
04:30 AM 61.1°F16.2°C 59.7°F15.4°C 95% 11.5 mph WNW18.5 kmh WNW 16.1 mph25.9 kmh 29.72 in1006.4 mb - 0.00 in0.0 mm 0.08 in2.0 mm
04:40 AM 61.0°F16.1°C 59.5°F15.3°C 95% 13.8 mph W22.2 kmh W 21.9 mph35.2 kmh 29.72 in1006.4 mb - 0.00 in0.0 mm 0.08 in2.0 mm
04:50 AM 60.6°F15.9°C 59.2°F15.1°C 95% 12.7 mph W20.4 kmh W 23.0 mph37.0 kmh 29.73 in1006.8 mb - 0.00 in0.0 mm 0.08 in2.0 mm
05:00 AM 60.4°F15.8°C 59.0°F15.0°C 95% 16.1 mph NW25.9 kmh NW 27.6 mph44.4 kmh 29.73 in1006.8 mb - 0.00 in0.0 mm 0.08 in2.0 mm
05:10 AM 60.2°F15.7°C 58.8°F14.9°C 95% 8.1 mph WSW13.0 kmh WSW 11.5 mph18.5 kmh 29.73 in1006.8 mb - 0.00 in0.0 mm 0.08 in2.0 mm
05:20 AM 59.4°F15.2°C 58.0°F14.4°C 95% 6.9 mph WSW11.1 kmh WSW 11.5 mph18.5 kmh 29.75 in1007.5 mb - 0.00 in0.0 mm 0.08 in2.0 mm
05:30 AM 59.0°F15.0°C 57.6°F14.2°C 95% 5.8 mph WSW9.3 kmh WSW 16.1 mph25.9 kmh 29.75 in1007.5 mb - 0.00 in0.0 mm 0.08 in2.0 mm
05:40 AM 58.7°F14.8°C 57.3°F14.1°C 95% 3.5 mph SW5.6 kmh SW 3.5 mph5.6 kmh 29.76 in1007.8 mb - 0.00 in0.0 mm 0.08 in2.0 mm
05:50 AM 58.6°F14.8°C 57.2°F14.0°C 95% 4.6 mph WSW7.4 kmh WSW 9.2 mph14.8 kmh 29.77 in1008.1 mb - 0.00 in0.0 mm 0.08 in2.0 mm
06:00 AM 58.4°F14.7°C 57.0°F13.9°C 95% 3.5 mph WSW5.6 kmh WSW 4.6 mph7.4 kmh 29.77 in1008.1 mb - 0.00 in0.0 mm 0.08 in2.0 mm
06:10 AM 58.2°F14.6°C 56.8°F13.8°C 95% 4.6 mph W7.4 kmh W 11.5 mph18.5 kmh 29.77 in1008.1 mb - 0.00 in0.0 mm 0.08 in2.0 mm
06:20 AM 58.0°F14.4°C 56.6°F13.7°C 95% 4.6 mph WSW7.4 kmh WSW 9.2 mph14.8 kmh 29.78 in1008.5 mb - 0.00 in0.0 mm 0.08 in2.0 mm
06:30 AM 57.6°F14.2°C 56.2°F13.4°C 95% 3.5 mph SW5.6 kmh SW 5.8 mph9.3 kmh 29.77 in1008.1 mb - 0.00 in0.0 mm 0.08 in2.0 mm
06:40 AM 57.2°F14.0°C 55.8°F13.2°C 95% 3.5 mph WSW5.6 kmh WSW 9.2 mph14.8 kmh 29.78 in1008.5 mb - 0.00 in0.0 mm 0.08 in2.0 mm
06:50 AM 57.2°F14.0°C 55.8°F13.2°C 95% 3.5 mph WSW5.6 kmh WSW 4.6 mph7.4 kmh 29.77 in1008.1 mb - 0.00 in0.0 mm 0.08 in2.0 mm
07:00 AM 58.2°F14.6°C 56.8°F13.8°C 95% 3.5 mph WSW5.6 kmh WSW 4.6 mph7.4 kmh 29.77 in1008.1 mb - 0.00 in0.0 mm 0.08 in2.0 mm
07:10 AM 58.9°F14.9°C 57.2°F14.0°C 94% 4.6 mph WSW7.4 kmh WSW 5.8 mph9.3 kmh 29.77 in1008.1 mb - 0.00 in0.0 mm 0.08 in2.0 mm
07:20 AM 60.3°F15.7°C 58.2°F14.6°C 93% 8.1 mph W13.0 kmh W 13.8 mph22.2 kmh 29.77 in1008.1 mb - 0.00 in0.0 mm 0.08 in2.0 mm
07:30 AM 60.8°F16.0°C 58.4°F14.7°C 92% 12.7 mph NW20.4 kmh NW 26.5 mph42.6 kmh 29.77 in1008.1 mb - 0.00 in0.0 mm 0.08 in2.0 mm
07:40 AM 61.0°F16.1°C 57.4°F14.1°C 88% 8.1 mph WSW13.0 kmh WSW 11.5 mph18.5 kmh 29.76 in1007.8 mb - 0.00 in0.0 mm 0.08 in2.0 mm
07:50 AM 62.4°F16.9°C 57.8°F14.3°C 85% 4.6 mph WSW7.4 kmh WSW 9.2 mph14.8 kmh 29.76 in1007.8 mb - 0.00 in0.0 mm 0.08 in2.0 mm
08:00 AM 63.1°F17.3°C 57.5°F14.2°C 82% 8.1 mph W13.0 kmh W 13.8 mph22.2 kmh 29.77 in1008.1 mb - 0.00 in0.0 mm 0.08 in2.0 mm
08:10 AM 63.1°F17.3°C 57.2°F14.0°C 81% 5.8 mph W9.3 kmh W 15.0 mph24.1 kmh 29.77 in1008.1 mb - 0.00 in0.0 mm 0.08 in2.0 mm
08:20 AM 63.0°F17.2°C 57.1°F13.9°C 81% 11.5 mph W18.5 kmh W 19.6 mph31.5 kmh 29.77 in1008.1 mb - 0.00 in0.0 mm 0.08 in2.0 mm
08:30 AM 63.3°F17.4°C 56.0°F13.3°C 77% 9.2 mph WNW14.8 kmh WNW 21.9 mph35.2 kmh 29.78 in1008.5 mb - 0.00 in0.0 mm 0.08 in2.0 mm
08:40 AM 63.8°F17.7°C 56.4°F13.6°C 77% 8.1 mph WSW13.0 kmh WSW 11.5 mph18.5 kmh 29.78 in1008.5 mb - 0.00 in0.0 mm 0.08 in2.0 mm
08:50 AM 64.1°F17.8°C 56.7°F13.7°C 77% 9.2 mph WNW14.8 kmh WNW 19.6 mph31.5 kmh 29.78 in1008.5 mb - 0.00 in0.0 mm 0.08 in2.0 mm
09:00 AM 64.4°F18.0°C 56.0°F13.3°C 74% 13.8 mph W22.2 kmh W 17.3 mph27.8 kmh 29.77 in1008.1 mb - 0.00 in0.0 mm 0.08 in2.0 mm
09:10 AM 64.5°F18.1°C 54.9°F12.7°C 71% 15.0 mph NW24.1 kmh NW 21.9 mph35.2 kmh 29.77 in1008.1 mb - 0.00 in0.0 mm 0.08 in2.0 mm
09:20 AM 64.4°F18.0°C 55.1°F12.8°C 72% 13.8 mph W22.2 kmh W 21.9 mph35.2 kmh 29.77 in1008.1 mb - 0.00 in0.0 mm 0.08 in2.0 mm
09:30 AM 64.8°F18.2°C 56.7°F13.7°C 75% 9.2 mph WNW14.8 kmh WNW 19.6 mph31.5 kmh 29.77 in1008.1 mb - 0.00 in0.0 mm 0.08 in2.0 mm
09:40 AM 64.9°F18.3°C 56.0°F13.3°C 73% 6.9 mph W11.1 kmh W 15.0 mph24.1 kmh 29.77 in1008.1 mb - 0.00 in0.0 mm 0.08 in2.0 mm
09:50 AM 64.6°F18.1°C 55.0°F12.8°C 71% 10.4 mph W16.7 kmh W 28.8 mph46.3 kmh 29.77 in1008.1 mb - 0.00 in0.0 mm 0.08 in2.0 mm
10:00 AM 64.6°F18.1°C 55.3°F12.9°C 72% 11.5 mph WSW18.5 kmh WSW 13.8 mph22.2 kmh 29.77 in1008.1 mb - 0.00 in0.0 mm 0.08 in2.0 mm
10:10 AM 65.1°F18.4°C 56.6°F13.7°C 74% 4.6 mph WSW7.4 kmh WSW 19.6 mph31.5 kmh 29.78 in1008.5 mb - 0.00 in0.0 mm 0.08 in2.0 mm
10:20 AM 65.0°F18.3°C 55.7°F13.2°C 72% 8.1 mph W13.0 kmh W 18.4 mph29.6 kmh 29.78 in1008.5 mb - 0.00 in0.0 mm 0.08 in2.0 mm
10:30 AM 64.4°F18.0°C 54.8°F12.7°C 71% 13.8 mph WSW22.2 kmh WSW 15.0 mph24.1 kmh 29.78 in1008.5 mb - 0.00 in0.0 mm 0.08 in2.0 mm
10:40 AM 64.5°F18.1°C 54.9°F12.7°C 71% 10.4 mph WSW16.7 kmh WSW 13.8 mph22.2 kmh 29.77 in1008.1 mb - 0.00 in0.0 mm 0.08 in2.0 mm
10:50 AM 64.9°F18.3°C 56.4°F13.6°C 74% 15.0 mph W24.1 kmh W 20.7 mph33.3 kmh 29.78 in1008.5 mb - 0.00 in0.0 mm 0.08 in2.0 mm
11:00 AM 64.7°F18.2°C 55.1°F12.8°C 71% 13.8 mph WSW22.2 kmh WSW 17.3 mph27.8 kmh 29.78 in1008.5 mb - 0.00 in0.0 mm 0.08 in2.0 mm
11:10 AM 64.5°F18.1°C 54.9°F12.7°C 71% 15.0 mph W24.1 kmh W 29.9 mph48.1 kmh 29.78 in1008.5 mb - 0.00 in0.0 mm 0.08 in2.0 mm
11:20 AM 63.6°F17.6°C 55.2°F12.9°C 74% 6.9 mph WSW11.1 kmh WSW 17.3 mph27.8 kmh 29.77 in1008.1 mb - 0.00 in0.0 mm 0.08 in2.0 mm
11:30 AM 65.0°F18.3°C 56.1°F13.4°C 73% 15.0 mph W24.1 kmh W 25.3 mph40.7 kmh 29.77 in1008.1 mb - 0.00 in0.0 mm 0.08 in2.0 mm
11:40 AM 64.1°F17.8°C 55.2°F12.9°C 73% 17.3 mph WNW27.8 kmh WNW 32.2 mph51.8 kmh 29.77 in1008.1 mb - 0.00 in0.0 mm 0.08 in2.0 mm
11:50 AM 64.2°F17.9°C 54.6°F12.6°C 71% 9.2 mph WSW14.8 kmh WSW 16.1 mph25.9 kmh 29.77 in1008.1 mb - 0.00 in0.0 mm 0.08 in2.0 mm
12:00 PM 63.9°F17.7°C 54.7°F12.6°C 72% 8.1 mph WSW13.0 kmh WSW 11.5 mph18.5 kmh 29.77 in1008.1 mb - 0.00 in0.0 mm 0.08 in2.0 mm
12:10 PM 63.4°F17.4°C 55.3°F12.9°C 75% 6.9 mph WSW11.1 kmh WSW 13.8 mph22.2 kmh 29.77 in1008.1 mb - 0.00 in0.0 mm 0.08 in2.0 mm
12:20 PM 63.3°F17.4°C 54.9°F12.7°C 74% 11.5 mph WNW18.5 kmh WNW 19.6 mph31.5 kmh 29.77 in1008.1 mb - 0.00 in0.0 mm 0.08 in2.0 mm
12:30 PM 64.1°F17.8°C 55.3°F12.9°C 73% 8.1 mph WSW13.0 kmh WSW 12.7 mph20.4 kmh 29.77 in1008.1 mb - 0.00 in0.0 mm 0.08 in2.0 mm
12:40 PM 63.9°F17.7°C 55.8°F13.2°C 75% 8.1 mph WSW13.0 kmh WSW 16.1 mph25.9 kmh 29.77 in1008.1 mb - 0.00 in0.0 mm 0.08 in2.0 mm
12:50 PM 63.6°F17.6°C 54.0°F12.2°C 71% 10.4 mph W16.7 kmh W 18.4 mph29.6 kmh 29.77 in1008.1 mb - 0.00 in0.0 mm 0.08 in2.0 mm
01:00 PM 64.4°F18.0°C 54.4°F12.4°C 70% 9.2 mph WSW14.8 kmh WSW 12.7 mph20.4 kmh 29.77 in1008.1 mb - 0.00 in0.0 mm 0.08 in2.0 mm
01:10 PM 64.5°F18.1°C 54.1°F12.3°C 69% 15.0 mph NW24.1 kmh NW 29.9 mph48.1 kmh 29.77 in1008.1 mb - 0.00 in0.0 mm 0.08 in2.0 mm
01:20 PM 64.1°F17.8°C 54.1°F12.3°C 70% 13.8 mph WSW22.2 kmh WSW 27.6 mph44.4 kmh 29.77 in1008.1 mb - 0.00 in0.0 mm 0.08 in2.0 mm
01:30 PM 64.3°F17.9°C 54.7°F12.6°C 71% 10.4 mph WSW16.7 kmh WSW 19.6 mph31.5 kmh 29.77 in1008.1 mb - 0.00 in0.0 mm 0.08 in2.0 mm
01:40 PM 63.9°F17.7°C 55.1°F12.8°C 73% 6.9 mph WSW11.1 kmh WSW 15.0 mph24.1 kmh 29.77 in1008.1 mb - 0.00 in0.0 mm 0.08 in2.0 mm
01:50 PM 64.8°F18.2°C 54.4°F12.4°C 69% 10.4 mph W16.7 kmh W 35.7 mph57.5 kmh 29.76 in1007.8 mb - 0.00 in0.0 mm 0.08 in2.0 mm
02:00 PM 64.5°F18.1°C 53.7°F12.1°C 68% 11.5 mph W18.5 kmh W 24.2 mph38.9 kmh 29.76 in1007.8 mb - 0.00 in0.0 mm 0.08 in2.0 mm
02:10 PM 64.1°F17.8°C 54.9°F12.7°C 72% 10.4 mph W16.7 kmh W 23.0 mph37.0 kmh 29.76 in1007.8 mb - 0.00 in0.0 mm 0.08 in2.0 mm
02:20 PM 64.2°F17.9°C 53.8°F12.1°C 69% 9.2 mph W14.8 kmh W 23.0 mph37.0 kmh 29.75 in1007.5 mb - 0.00 in0.0 mm 0.08 in2.0 mm
02:30 PM 63.6°F17.6°C 54.4°F12.4°C 72% 9.2 mph WNW14.8 kmh WNW 26.5 mph42.6 kmh 29.75 in1007.5 mb - 0.00 in0.0 mm 0.08 in2.0 mm
02:40 PM 62.9°F17.2°C 53.7°F12.1°C 72% 12.7 mph W20.4 kmh W 19.6 mph31.5 kmh 29.75 in1007.5 mb - 0.00 in0.0 mm 0.08 in2.0 mm
02:50 PM 61.2°F16.2°C 53.2°F11.8°C 75% 10.4 mph WSW16.7 kmh WSW 18.4 mph29.6 kmh 29.75 in1007.5 mb - 0.00 in0.0 mm 0.08 in2.0 mm
03:00 PM 61.5°F16.4°C 54.3°F12.4°C 77% 12.7 mph NW20.4 kmh NW 29.9 mph48.1 kmh 29.75 in1007.5 mb - 0.00 in0.0 mm 0.08 in2.0 mm
03:10 PM 61.0°F16.1°C 53.0°F11.7°C 75% 10.4 mph WSW16.7 kmh WSW 24.2 mph38.9 kmh 29.75 in1007.5 mb - 0.00 in0.0 mm 0.08 in2.0 mm
03:30 PM 62.6°F17.0°C 53.1°F11.7°C 71% 6.9 mph WSW11.1 kmh WSW 17.3 mph27.8 kmh 29.75 in1007.5 mb - 0.00 in0.0 mm 0.08 in2.0 mm
03:40 PM 62.8°F17.1°C 53.7°F12.1°C 72% 8.1 mph WSW13.0 kmh WSW 18.4 mph29.6 kmh 29.75 in1007.5 mb - 0.00 in0.0 mm 0.08 in2.0 mm
03:50 PM 62.3°F16.8°C 50.8°F10.4°C 66% 12.7 mph WSW20.4 kmh WSW 20.7 mph33.3 kmh 29.75 in1007.5 mb - 0.00 in0.0 mm 0.08 in2.0 mm
04:00 PM 61.2°F16.2°C 52.1°F11.2°C 72% 11.5 mph WSW18.5 kmh WSW 20.7 mph33.3 kmh 29.75 in1007.5 mb - 0.00 in0.0 mm 0.08 in2.0 mm
04:10 PM 62.6°F17.0°C 52.3°F11.3°C 69% 18.4 mph WNW29.6 kmh WNW 31.1 mph50.1 kmh 29.75 in1007.5 mb - 0.00 in0.0 mm 0.08 in2.0 mm
04:20 PM 61.6°F16.4°C 52.5°F11.4°C 72% 17.3 mph WNW27.8 kmh WNW 27.6 mph44.4 kmh 29.76 in1007.8 mb - 0.00 in0.0 mm 0.08 in2.0 mm
04:30 PM 60.8°F16.0°C 52.5°F11.4°C 74% 15.0 mph WNW24.1 kmh WNW 26.5 mph42.6 kmh 29.76 in1007.8 mb - 0.00 in0.0 mm 0.08 in2.0 mm
04:40 PM 61.6°F16.4°C 53.2°F11.8°C 74% 12.7 mph W20.4 kmh W 23.0 mph37.0 kmh 29.75 in1007.5 mb - 0.00 in0.0 mm 0.08 in2.0 mm
04:50 PM 60.7°F15.9°C 52.3°F11.3°C 74% 10.4 mph WNW16.7 kmh WNW 16.1 mph25.9 kmh 29.75 in1007.5 mb - 0.00 in0.0 mm 0.08 in2.0 mm
05:00 PM 60.7°F15.9°C 52.4°F11.3°C 74% 9.2 mph WSW14.8 kmh WSW 13.8 mph22.2 kmh 29.75 in1007.5 mb - 0.00 in0.0 mm 0.08 in2.0 mm
05:10 PM 60.8°F16.0°C 51.7°F10.9°C 72% 9.2 mph WSW14.8 kmh WSW 15.0 mph24.1 kmh 29.75 in1007.5 mb - 0.00 in0.0 mm 0.08 in2.0 mm
05:20 PM 60.5°F15.8°C 51.0°F10.6°C 71% 12.7 mph W20.4 kmh W 20.7 mph33.3 kmh 29.75 in1007.5 mb - 0.00 in0.0 mm 0.08 in2.0 mm
05:30 PM 60.1°F15.6°C 51.4°F10.8°C 73% 5.8 mph WSW9.3 kmh WSW 13.8 mph22.2 kmh 29.75 in1007.5 mb - 0.00 in0.0 mm 0.08 in2.0 mm
05:40 PM 59.5°F15.3°C 50.8°F10.4°C 73% 9.2 mph WSW14.8 kmh WSW 16.1 mph25.9 kmh 29.75 in1007.5 mb - 0.00 in0.0 mm 0.08 in2.0 mm
05:50 PM 59.5°F15.3°C 50.4°F10.2°C 72% 13.8 mph WSW22.2 kmh WSW 24.2 mph38.9 kmh 29.76 in1007.8 mb - 0.00 in0.0 mm 0.08 in2.0 mm
06:00 PM 58.5°F14.7°C 50.9°F10.5°C 76% 8.1 mph WSW13.0 kmh WSW 16.1 mph25.9 kmh 29.76 in1007.8 mb - 0.00 in0.0 mm 0.08 in2.0 mm
06:10 PM 58.3°F14.6°C 50.8°F10.4°C 76% 12.7 mph WSW20.4 kmh WSW 19.6 mph31.5 kmh 29.76 in1007.8 mb - 0.00 in0.0 mm 0.08 in2.0 mm
06:20 PM 58.1°F14.5°C 50.2°F10.1°C 75% 16.1 mph WNW25.9 kmh WNW 20.7 mph33.3 kmh 29.77 in1008.1 mb - 0.00 in0.0 mm 0.08 in2.0 mm
06:30 PM 57.6°F14.2°C 50.1°F10.1°C 76% 10.4 mph WSW16.7 kmh WSW 13.8 mph22.2 kmh 29.77 in1008.1 mb - 0.00 in0.0 mm 0.08 in2.0 mm
06:40 PM 57.1°F13.9°C 50.0°F10.0°C 77% 8.1 mph WSW13.0 kmh WSW 17.3 mph27.8 kmh 29.77 in1008.1 mb - 0.00 in0.0 mm 0.08 in2.0 mm
06:50 PM 56.7°F13.7°C 49.9°F9.9°C 78% 9.2 mph WSW14.8 kmh WSW 11.5 mph18.5 kmh 29.78 in1008.5 mb - 0.00 in0.0 mm 0.08 in2.0 mm
07:00 PM 56.6°F13.7°C 50.2°F10.1°C 79% 5.8 mph WSW9.3 kmh WSW 10.4 mph16.7 kmh 29.78 in1008.5 mb - 0.00 in0.0 mm 0.08 in2.0 mm
07:10 PM 56.5°F13.6°C 50.1°F10.1°C 79% 6.9 mph WSW11.1 kmh WSW 13.8 mph22.2 kmh 29.78 in1008.5 mb - 0.00 in0.0 mm 0.08 in2.0 mm
07:20 PM 56.3°F13.5°C 50.2°F10.1°C 80% 6.9 mph WSW11.1 kmh WSW 10.4 mph16.7 kmh 29.78 in1008.5 mb - 0.00 in0.0 mm 0.08 in2.0 mm
07:30 PM 56.1°F13.4°C 50.0°F10.0°C 80% 9.2 mph W14.8 kmh W 16.1 mph25.9 kmh 29.79 in1008.8 mb - 0.00 in0.0 mm 0.08 in2.0 mm
07:40 PM 55.7°F13.2°C 49.0°F9.4°C 78% 8.1 mph WSW13.0 kmh WSW 11.5 mph18.5 kmh 29.79 in1008.8 mb - 0.00 in0.0 mm 0.08 in2.0 mm
07:50 PM 55.8°F13.2°C 49.4°F9.7°C 79% 6.9 mph WSW11.1 kmh WSW 15.0 mph24.1 kmh 29.79 in1008.8 mb - 0.00 in0.0 mm 0.08 in2.0 mm
08:00 PM 55.9°F13.3°C 49.5°F9.7°C 79% 5.8 mph WSW9.3 kmh WSW 11.5 mph18.5 kmh 29.80 in1009.1 mb - 0.00 in0.0 mm 0.08 in2.0 mm
08:10 PM 56.0°F13.3°C 50.3°F10.2°C 81% 6.9 mph W11.1 kmh W 17.3 mph27.8 kmh 29.80 in1009.1 mb - 0.00 in0.0 mm 0.08 in2.0 mm
08:20 PM 56.0°F13.3°C 50.6°F10.3°C 82% 6.9 mph WSW11.1 kmh WSW 15.0 mph24.1 kmh 29.81 in1009.5 mb - 0.00 in0.0 mm 0.08 in2.0 mm
08:30 PM 55.7°F13.2°C 50.3°F10.2°C 82% 8.1 mph W13.0 kmh W 15.0 mph24.1 kmh 29.81 in1009.5 mb - 0.00 in0.0 mm 0.08 in2.0 mm
08:40 PM 55.4°F13.0°C 49.7°F9.8°C 81% 3.5 mph WSW5.6 kmh WSW 16.1 mph25.9 kmh 29.81 in1009.5 mb - 0.00 in0.0 mm 0.08 in2.0 mm
08:50 PM 55.4°F13.0°C 49.7°F9.8°C 81% 4.6 mph WSW7.4 kmh WSW 3.5 mph5.6 kmh 29.82 in1009.8 mb - 0.00 in0.0 mm 0.08 in2.0 mm
09:00 PM 55.2°F12.9°C 49.1°F9.5°C 80% 2.3 mph WSW3.7 kmh WSW 3.5 mph5.6 kmh 29.82 in1009.8 mb - 0.00 in0.0 mm 0.08 in2.0 mm
09:10 PM 55.1°F12.8°C 49.0°F9.4°C 80% 1.2 mph WSW1.9 kmh WSW 4.6 mph7.4 kmh 29.82 in1009.8 mb - 0.00 in0.0 mm 0.08 in2.0 mm
09:20 PM 55.2°F12.9°C 49.5°F9.7°C 81% 3.5 mph SW5.6 kmh SW 4.6 mph7.4 kmh 29.82 in1009.8 mb - 0.00 in0.0 mm 0.08 in2.0 mm
09:30 PM 55.4°F13.0°C 50.0°F10.0°C 82% 2.3 mph WSW3.7 kmh WSW 3.5 mph5.6 kmh 29.83 in1010.2 mb - 0.00 in0.0 mm 0.08 in2.0 mm
09:40 PM 55.5°F13.1°C 50.1°F10.1°C 82% 3.5 mph WSW5.6 kmh WSW 4.6 mph7.4 kmh 29.83 in1010.2 mb - 0.00 in0.0 mm 0.08 in2.0 mm
09:50 PM 55.0°F12.8°C 49.6°F9.8°C 82% 4.6 mph WSW7.4 kmh WSW 9.2 mph14.8 kmh 29.83 in1010.2 mb - 0.00 in0.0 mm 0.08 in2.0 mm
10:00 PM 54.9°F12.7°C 49.5°F9.7°C 82% 3.5 mph WSW5.6 kmh WSW 11.5 mph18.5 kmh 29.83 in1010.2 mb - 0.00 in0.0 mm 0.08 in2.0 mm
10:10 PM 54.8°F12.7°C 49.7°F9.8°C 83% 3.5 mph WSW5.6 kmh WSW 3.5 mph5.6 kmh 29.83 in1010.2 mb - 0.00 in0.0 mm 0.08 in2.0 mm
10:20 PM 54.8°F12.7°C 49.7°F9.8°C 83% 4.6 mph WSW7.4 kmh WSW 4.6 mph7.4 kmh 29.84 in1010.5 mb - 0.00 in0.0 mm 0.08 in2.0 mm
10:30 PM 55.0°F12.8°C 49.9°F9.9°C 83% 5.8 mph WSW9.3 kmh WSW 12.7 mph20.4 kmh 29.84 in1010.5 mb - 0.00 in0.0 mm 0.08 in2.0 mm
10:40 PM 55.0°F12.8°C 49.9°F9.9°C 83% 4.6 mph WSW7.4 kmh WSW 5.8 mph9.3 kmh 29.84 in1010.5 mb - 0.00 in0.0 mm 0.08 in2.0 mm
10:50 PM 54.8°F12.7°C 49.4°F9.7°C 82% 3.5 mph WSW5.6 kmh WSW 11.5 mph18.5 kmh 29.84 in1010.5 mb - 0.00 in0.0 mm 0.08 in2.0 mm
11:00 PM 54.7°F12.6°C 49.3°F9.6°C 82% 2.3 mph WSW3.7 kmh WSW 3.5 mph5.6 kmh 29.84 in1010.5 mb - 0.00 in0.0 mm 0.10 in2.5 mm
11:10 PM 54.8°F12.7°C 49.7°F9.8°C 83% 4.6 mph WSW7.4 kmh WSW 11.5 mph18.5 kmh 29.84 in1010.5 mb - 0.00 in0.0 mm 0.10 in2.5 mm
11:20 PM 54.6°F12.6°C 49.2°F9.6°C 82% 3.5 mph WSW5.6 kmh WSW 10.4 mph16.7 kmh 29.84 in1010.5 mb - 0.00 in0.0 mm 0.10 in2.5 mm
11:30 PM 54.7°F12.6°C 49.3°F9.6°C 82% 2.3 mph WSW3.7 kmh WSW 8.1 mph13.0 kmh 29.84 in1010.5 mb - 0.00 in0.0 mm 0.10 in2.5 mm
11:40 PM 54.4°F12.4°C 49.0°F9.4°C 82% 4.6 mph W7.4 kmh W 11.5 mph18.5 kmh 29.84 in1010.5 mb - 0.00 in0.0 mm 0.10 in2.5 mm
11:50 PM 54.9°F12.7°C 49.8°F9.9°C 83% 4.6 mph W7.4 kmh W 9.2 mph14.8 kmh 29.84 in1010.5 mb - 0.00 in0.0 mm 0.10 in2.5 mm